sensor_id;sensor_type;location;lat;lon;timestamp;pressure;altitude;pressure_sealevel;temperature;humidity
10460;BME280;54412;51.206;6.888;2023-12-14T00:00:45;99912.03;;;10.18;100.00
10460;BME280;54412;51.206;6.888;2023-12-14T00:03:11;99909.78;;;10.26;100.00
10460;BME280;54412;51.206;6.888;2023-12-14T00:05:37;99916.78;;;10.41;100.00
10460;BME280;54412;51.206;6.888;2023-12-14T00:08:02;99926.41;;;10.12;100.00
10460;BME280;54412;51.206;6.888;2023-12-14T00:10:28;99927.44;;;10.10;100.00
10460;BME280;54412;51.206;6.888;2023-12-14T00:12:54;99928.88;;;10.15;100.00
10460;BME280;54412;51.206;6.888;2023-12-14T00:15:21;99929.94;;;10.27;100.00
10460;BME280;54412;51.206;6.888;2023-12-14T00:17:46;99936.81;;;9.84;100.00
10460;BME280;54412;51.206;6.888;2023-12-14T00:20:12;99942.59;;;9.91;100.00
10460;BME280;54412;51.206;6.888;2023-12-14T00:22:38;99940.63;;;9.94;100.00
10460;BME280;54412;51.206;6.888;2023-12-14T00:25:05;99945.69;;;10.13;100.00
10460;BME280;54412;51.206;6.888;2023-12-14T00:27:31;99947.06;;;10.04;100.00
10460;BME280;54412;51.206;6.888;2023-12-14T00:29:56;99949.56;;;9.92;100.00
10460;BME280;54412;51.206;6.888;2023-12-14T00:32:22;99958.44;;;10.05;100.00
10460;BME280;54412;51.206;6.888;2023-12-14T00:34:48;99953.69;;;10.11;100.00
10460;BME280;54412;51.206;6.888;2023-12-14T00:37:14;99953.09;;;10.06;100.00
10460;BME280;54412;51.206;6.888;2023-12-14T00:39:40;99966.34;;;10.05;100.00
10460;BME280;54412;51.206;6.888;2023-12-14T00:42:06;99971.53;;;10.06;100.00
10460;BME280;54412;51.206;6.888;2023-12-14T00:44:31;99978.19;;;9.98;100.00
10460;BME280;54412;51.206;6.888;2023-12-14T00:46:57;99983.03;;;10.05;100.00
10460;BME280;54412;51.206;6.888;2023-12-14T00:49:24;99996.38;;;10.18;100.00
10460;BME280;54412;51.206;6.888;2023-12-14T00:51:49;100004.00;;;10.22;100.00
10460;BME280;54412;51.206;6.888;2023-12-14T00:54:15;100004.00;;;9.91;100.00
10460;BME280;54412;51.206;6.888;2023-12-14T00:56:41;100004.63;;;9.96;100.00
10460;BME280;54412;51.206;6.888;2023-12-14T00:59:06;100015.34;;;10.09;100.00
10460;BME280;54412;51.206;6.888;2023-12-14T01:01:32;100017.13;;;9.93;100.00
10460;BME280;54412;51.206;6.888;2023-12-14T01:03:58;100023.06;;;9.96;100.00
10460;BME280;54412;51.206;6.888;2023-12-14T01:06:25;100035.38;;;9.96;100.00
10460;BME280;54412;51.206;6.888;2023-12-14T01:08:51;100038.19;;;9.93;100.00
10460;BME280;54412;51.206;6.888;2023-12-14T01:11:16;100042.66;;;10.06;100.00
10460;BME280;54412;51.206;6.888;2023-12-14T01:13:42;100051.63;;;10.19;100.00
10460;BME280;54412;51.206;6.888;2023-12-14T01:16:08;100053.47;;;10.17;100.00
10460;BME280;54412;51.206;6.888;2023-12-14T01:18:34;100055.94;;;10.05;100.00
10460;BME280;54412;51.206;6.888;2023-12-14T01:21:00;100049.41;;;9.96;100.00
10460;BME280;54412;51.206;6.888;2023-12-14T01:23:25;100060.66;;;10.29;100.00
10460;BME280;54412;51.206;6.888;2023-12-14T01:25:51;100072.50;;;10.07;100.00
10460;BME280;54412;51.206;6.888;2023-12-14T01:28:17;100068.19;;;10.21;100.00
10460;BME280;54412;51.206;6.888;2023-12-14T01:30:42;100074.75;;;10.14;100.00
10460;BME280;54412;51.206;6.888;2023-12-14T01:33:08;100074.28;;;10.22;100.00
10460;BME280;54412;51.206;6.888;2023-12-14T01:35:33;100081.13;;;10.10;100.00
10460;BME280;54412;51.206;6.888;2023-12-14T01:37:59;100085.16;;;10.00;100.00
10460;BME280;54412;51.206;6.888;2023-12-14T01:40:25;100093.81;;;10.02;100.00
10460;BME280;54412;51.206;6.888;2023-12-14T01:42:50;100099.47;;;10.12;100.00
10460;BME280;54412;51.206;6.888;2023-12-14T01:45:16;100118.81;;;9.95;100.00
10460;BME280;54412;51.206;6.888;2023-12-14T01:47:43;100113.81;;;9.91;100.00
10460;BME280;54412;51.206;6.888;2023-12-14T01:50:09;100121.97;;;9.86;100.00
10460;BME280;54412;51.206;6.888;2023-12-14T01:52:34;100124.59;;;9.86;100.00
10460;BME280;54412;51.206;6.888;2023-12-14T01:55:00;100136.66;;;10.06;100.00
10460;BME280;54412;51.206;6.888;2023-12-14T01:57:28;100134.72;;;9.94;100.00
10460;BME280;54412;51.206;6.888;2023-12-14T01:59:54;100138.13;;;9.80;100.00
10460;BME280;54412;51.206;6.888;2023-12-14T02:02:19;100127.44;;;9.50;100.00
10460;BME280;54412;51.206;6.888;2023-12-14T02:04:45;100155.22;;;9.56;100.00
10460;BME280;54412;51.206;6.888;2023-12-14T02:07:11;100151.94;;;9.68;100.00
10460;BME280;54412;51.206;6.888;2023-12-14T02:09:37;100156.78;;;9.60;100.00
10460;BME280;54412;51.206;6.888;2023-12-14T02:12:02;100160.44;;;9.73;100.00
10460;BME280;54412;51.206;6.888;2023-12-14T02:14:28;100158.56;;;9.75;100.00
10460;BME280;54412;51.206;6.888;2023-12-14T02:16:54;100164.22;;;9.52;100.00
10460;BME280;54412;51.206;6.888;2023-12-14T02:19:19;100169.34;;;9.71;100.00
10460;BME280;54412;51.206;6.888;2023-12-14T02:21:45;100168.47;;;9.55;100.00
10460;BME280;54412;51.206;6.888;2023-12-14T02:24:11;100165.38;;;9.46;100.00
10460;BME280;54412;51.206;6.888;2023-12-14T02:26:36;100180.88;;;9.68;100.00
10460;BME280;54412;51.206;6.888;2023-12-14T02:29:02;100173.34;;;9.62;100.00
10460;BME280;54412;51.206;6.888;2023-12-14T02:31:28;100191.53;;;9.82;100.00
10460;BME280;54412;51.206;6.888;2023-12-14T02:33:53;100191.47;;;9.51;100.00
10460;BME280;54412;51.206;6.888;2023-12-14T02:36:19;100202.09;;;9.49;100.00
10460;BME280;54412;51.206;6.888;2023-12-14T02:38:45;100207.19;;;9.52;100.00
10460;BME280;54412;51.206;6.888;2023-12-14T02:41:11;100210.41;;;9.75;100.00
10460;BME280;54412;51.206;6.888;2023-12-14T02:43:36;100220.28;;;9.87;100.00
10460;BME280;54412;51.206;6.888;2023-12-14T02:46:03;100223.41;;;9.61;100.00
10460;BME280;54412;51.206;6.888;2023-12-14T02:48:29;100234.06;;;9.42;100.00
10460;BME280;54412;51.206;6.888;2023-12-14T02:50:55;100233.50;;;9.35;100.00
10460;BME280;54412;51.206;6.888;2023-12-14T02:53:21;100238.13;;;9.65;100.00
10460;BME280;54412;51.206;6.888;2023-12-14T02:55:47;100239.63;;;9.53;100.00
10460;BME280;54412;51.206;6.888;2023-12-14T02:58:12;100252.31;;;9.45;100.00
10460;BME280;54412;51.206;6.888;2023-12-14T03:00:38;100244.84;;;9.20;100.00
10460;BME280;54412;51.206;6.888;2023-12-14T03:03:03;100245.91;;;9.50;100.00
10460;BME280;54412;51.206;6.888;2023-12-14T03:05:29;100252.66;;;9.22;100.00
10460;BME280;54412;51.206;6.888;2023-12-14T03:07:55;100260.47;;;9.40;100.00
10460;BME280;54412;51.206;6.888;2023-12-14T03:10:20;100262.56;;;9.17;100.00
10460;BME280;54412;51.206;6.888;2023-12-14T03:12:46;100272.78;;;9.40;100.00
10460;BME280;54412;51.206;6.888;2023-12-14T03:15:12;100270.59;;;9.31;100.00
10460;BME280;54412;51.206;6.888;2023-12-14T03:17:37;100274.88;;;9.33;100.00
10460;BME280;54412;51.206;6.888;2023-12-14T03:20:03;100273.25;;;9.31;100.00
10460;BME280;54412;51.206;6.888;2023-12-14T03:22:31;100275.03;;;9.47;100.00
10460;BME280;54412;51.206;6.888;2023-12-14T03:24:56;100277.66;;;9.47;100.00
10460;BME280;54412;51.206;6.888;2023-12-14T03:27:22;100282.53;;;9.38;100.00
10460;BME280;54412;51.206;6.888;2023-12-14T03:29:48;100290.91;;;9.46;100.00
10460;BME280;54412;51.206;6.888;2023-12-14T03:32:14;100294.59;;;9.25;100.00
10460;BME280;54412;51.206;6.888;2023-12-14T03:34:40;100301.00;;;9.19;100.00
10460;BME280;54412;51.206;6.888;2023-12-14T03:37:06;100311.47;;;9.21;100.00
10460;BME280;54412;51.206;6.888;2023-12-14T03:39:32;100306.84;;;9.26;100.00
10460;BME280;54412;51.206;6.888;2023-12-14T03:41:58;100314.88;;;9.23;100.00
10460;BME280;54412;51.206;6.888;2023-12-14T03:44:23;100319.47;;;9.36;100.00
10460;BME280;54412;51.206;6.888;2023-12-14T03:46:50;100311.94;;;9.29;100.00
10460;BME280;54412;51.206;6.888;2023-12-14T03:49:16;100320.97;;;9.23;100.00
10460;BME280;54412;51.206;6.888;2023-12-14T03:51:41;100321.84;;;9.24;100.00
10460;BME280;54412;51.206;6.888;2023-12-14T03:54:07;100333.69;;;9.15;100.00
10460;BME280;54412;51.206;6.888;2023-12-14T03:56:33;100339.16;;;9.11;100.00
10460;BME280;54412;51.206;6.888;2023-12-14T03:58:58;100330.97;;;9.17;100.00
10460;BME280;54412;51.206;6.888;2023-12-14T04:01:24;100336.53;;;9.11;100.00
10460;BME280;54412;51.206;6.888;2023-12-14T04:03:50;100346.84;;;9.15;100.00
10460;BME280;54412;51.206;6.888;2023-12-14T04:06:15;100353.63;;;9.19;100.00
10460;BME280;54412;51.206;6.888;2023-12-14T04:08:42;100358.69;;;9.24;100.00
10460;BME280;54412;51.206;6.888;2023-12-14T04:11:08;100363.41;;;9.17;100.00
10460;BME280;54412;51.206;6.888;2023-12-14T04:13:34;100366.03;;;9.17;100.00
10460;BME280;54412;51.206;6.888;2023-12-14T04:16:00;100367.19;;;9.29;100.00
10460;BME280;54412;51.206;6.888;2023-12-14T04:18:26;100377.19;;;9.04;100.00
10460;BME280;54412;51.206;6.888;2023-12-14T04:20:52;100379.38;;;8.96;100.00
10460;BME280;54412;51.206;6.888;2023-12-14T04:23:17;100384.47;;;9.17;100.00
10460;BME280;54412;51.206;6.888;2023-12-14T04:25:44;100388.84;;;9.17;100.00
10460;BME280;54412;51.206;6.888;2023-12-14T04:28:09;100390.63;;;9.16;100.00
10460;BME280;54412;51.206;6.888;2023-12-14T04:30:35;100393.97;;;9.01;100.00
10460;BME280;54412;51.206;6.888;2023-12-14T04:33:00;100403.88;;;8.78;100.00
10460;BME280;54412;51.206;6.888;2023-12-14T04:35:26;100406.13;;;9.04;100.00
10460;BME280;54412;51.206;6.888;2023-12-14T04:37:52;100399.47;;;8.78;100.00
10460;BME280;54412;51.206;6.888;2023-12-14T04:40:18;100399.91;;;8.88;100.00
10460;BME280;54412;51.206;6.888;2023-12-14T04:42:44;100411.19;;;8.90;100.00
10460;BME280;54412;51.206;6.888;2023-12-14T04:45:10;100417.09;;;9.13;100.00
10460;BME280;54412;51.206;6.888;2023-12-14T04:47:36;100424.19;;;8.93;100.00
10460;BME280;54412;51.206;6.888;2023-12-14T04:50:02;100429.81;;;9.04;100.00
10460;BME280;54412;51.206;6.888;2023-12-14T04:52:28;100424.19;;;8.93;100.00
10460;BME280;54412;51.206;6.888;2023-12-14T04:54:54;100436.91;;;8.83;100.00
10460;BME280;54412;51.206;6.888;2023-12-14T04:57:20;100439.72;;;8.60;100.00
10460;BME280;54412;51.206;6.888;2023-12-14T04:59:46;100439.72;;;8.60;100.00
10460;BME280;54412;51.206;6.888;2023-12-14T05:02:11;100441.13;;;9.06;100.00
10460;BME280;54412;51.206;6.888;2023-12-14T05:04:37;100444.97;;;8.99;100.00
10460;BME280;54412;51.206;6.888;2023-12-14T05:07:03;100462.78;;;8.74;100.00
10460;BME280;54412;51.206;6.888;2023-12-14T05:09:29;100457.53;;;8.74;100.00
10460;BME280;54412;51.206;6.888;2023-12-14T05:11:54;100458.03;;;8.63;100.00
10460;BME280;54412;51.206;6.888;2023-12-14T05:14:20;100464.06;;;8.84;100.00
10460;BME280;54412;51.206;6.888;2023-12-14T05:16:45;100466.34;;;8.91;100.00
10460;BME280;54412;51.206;6.888;2023-12-14T05:19:11;100464.09;;;8.64;100.00
10460;BME280;54412;51.206;6.888;2023-12-14T05:21:38;100470.16;;;8.66;100.00
10460;BME280;54412;51.206;6.888;2023-12-14T05:24:05;100474.59;;;8.65;100.00
10460;BME280;54412;51.206;6.888;2023-12-14T05:26:30;100480.97;;;8.60;100.00
10460;BME280;54412;51.206;6.888;2023-12-14T05:28:57;100472.00;;;8.64;100.00
10460;BME280;54412;51.206;6.888;2023-12-14T05:31:22;100486.94;;;8.63;100.00
10460;BME280;54412;51.206;6.888;2023-12-14T05:33:48;100489.81;;;8.57;100.00
10460;BME280;54412;51.206;6.888;2023-12-14T05:36:14;100490.34;;;8.65;100.00
10460;BME280;54412;51.206;6.888;2023-12-14T05:38:41;100492.63;;;8.73;100.00
10460;BME280;54412;51.206;6.888;2023-12-14T05:41:07;100500.50;;;8.73;100.00
10460;BME280;54412;51.206;6.888;2023-12-14T05:43:32;100508.25;;;8.96;100.00
10460;BME280;54412;51.206;6.888;2023-12-14T05:45:58;100511.16;;;8.70;100.00
10460;BME280;54412;51.206;6.888;2023-12-14T05:48:24;100511.56;;;8.61;100.00
10460;BME280;54412;51.206;6.888;2023-12-14T05:50:52;100516.03;;;8.79;100.00
10460;BME280;54412;51.206;6.888;2023-12-14T05:53:18;100528.72;;;8.69;100.00
10460;BME280;54412;51.206;6.888;2023-12-14T05:55:44;100529.75;;;8.85;100.00
10460;BME280;54412;51.206;6.888;2023-12-14T05:58:09;100529.38;;;8.74;100.00
10460;BME280;54412;51.206;6.888;2023-12-14T06:00:36;100536.91;;;8.82;100.00
10460;BME280;54412;51.206;6.888;2023-12-14T06:03:02;100530.56;;;8.67;100.00
10460;BME280;54412;51.206;6.888;2023-12-14T06:05:28;100539.44;;;8.65;100.00
10460;BME280;54412;51.206;6.888;2023-12-14T06:07:54;100544.50;;;8.69;100.00
10460;BME280;54412;51.206;6.888;2023-12-14T06:10:20;100556.19;;;8.62;100.00
10460;BME280;54412;51.206;6.888;2023-12-14T06:12:47;100550.34;;;8.56;100.00
10460;BME280;54412;51.206;6.888;2023-12-14T06:15:13;100563.25;;;8.62;100.00
10460;BME280;54412;51.206;6.888;2023-12-14T06:17:39;100564.63;;;8.70;100.00
10460;BME280;54412;51.206;6.888;2023-12-14T06:20:07;100571.41;;;8.76;100.00
10460;BME280;54412;51.206;6.888;2023-12-14T06:22:37;100579.94;;;8.81;100.00
10460;BME280;54412;51.206;6.888;2023-12-14T06:25:03;100592.41;;;8.96;100.00
10460;BME280;54412;51.206;6.888;2023-12-14T06:27:29;100594.69;;;9.03;100.00
10460;BME280;54412;51.206;6.888;2023-12-14T06:29:55;100599.22;;;9.00;100.00
10460;BME280;54412;51.206;6.888;2023-12-14T06:32:21;100605.91;;;8.88;100.00
10460;BME280;54412;51.206;6.888;2023-12-14T06:34:47;100603.53;;;9.02;100.00
10460;BME280;54412;51.206;6.888;2023-12-14T06:37:13;100622.56;;;9.27;100.00
10460;BME280;54412;51.206;6.888;2023-12-14T06:39:41;100622.19;;;9.16;100.00
10460;BME280;54412;51.206;6.888;2023-12-14T06:42:06;100631.41;;;8.86;100.00
10460;BME280;54412;51.206;6.888;2023-12-14T06:44:32;100636.38;;;8.92;100.00
10460;BME280;54412;51.206;6.888;2023-12-14T06:46:58;100644.75;;;8.82;100.00
10460;BME280;54412;51.206;6.888;2023-12-14T06:49:25;100643.78;;;8.84;100.00
10460;BME280;54412;51.206;6.888;2023-12-14T06:51:51;100654.47;;;8.80;100.00
10460;BME280;54412;51.206;6.888;2023-12-14T06:54:16;100655.78;;;8.70;100.00
10460;BME280;54412;51.206;6.888;2023-12-14T06:56:42;100654.34;;;8.63;100.00
10460;BME280;54412;51.206;6.888;2023-12-14T06:59:08;100659.94;;;8.75;100.00
10460;BME280;54412;51.206;6.888;2023-12-14T07:01:34;100655.06;;;8.66;100.00
10460;BME280;54412;51.206;6.888;2023-12-14T07:04:01;100670.09;;;8.63;100.00
10460;BME280;54412;51.206;6.888;2023-12-14T07:06:29;100668.28;;;8.65;100.00
10460;BME280;54412;51.206;6.888;2023-12-14T07:08:54;100672.38;;;8.50;100.00
10460;BME280;54412;51.206;6.888;2023-12-14T07:11:20;100663.91;;;8.64;100.00
10460;BME280;54412;51.206;6.888;2023-12-14T07:13:46;100685.03;;;8.62;100.00
10460;BME280;54412;51.206;6.888;2023-12-14T07:16:12;100688.44;;;8.64;100.00
10460;BME280;54412;51.206;6.888;2023-12-14T07:18:42;100693.47;;;8.70;100.00
10460;BME280;54412;51.206;6.888;2023-12-14T07:21:08;100697.44;;;8.59;100.00
10460;BME280;54412;51.206;6.888;2023-12-14T07:23:35;100712.53;;;8.54;100.00
10460;BME280;54412;51.206;6.888;2023-12-14T07:26:01;100720.13;;;9.03;98.12
10460;BME280;54412;51.206;6.888;2023-12-14T07:28:28;100723.19;;;8.72;98.63
10460;BME280;54412;51.206;6.888;2023-12-14T07:30:54;100728.91;;;8.60;99.38
10460;BME280;54412;51.206;6.888;2023-12-14T07:33:20;100730.94;;;8.54;99.31
10460;BME280;54412;51.206;6.888;2023-12-14T07:35:46;100726.78;;;8.48;100.00
10460;BME280;54412;51.206;6.888;2023-12-14T07:38:12;100730.94;;;8.32;100.00
10460;BME280;54412;51.206;6.888;2023-12-14T07:40:38;100737.06;;;8.54;100.00
10460;BME280;54412;51.206;6.888;2023-12-14T07:43:06;100749.84;;;8.63;99.50
10460;BME280;54412;51.206;6.888;2023-12-14T07:45:33;100757.38;;;8.51;100.00
10460;BME280;54412;51.206;6.888;2023-12-14T07:47:58;100764.88;;;8.60;100.00
10460;BME280;54412;51.206;6.888;2023-12-14T07:50:25;100769.41;;;8.56;100.00
10460;BME280;54412;51.206;6.888;2023-12-14T07:52:51;100772.16;;;8.53;99.97
10460;BME280;54412;51.206;6.888;2023-12-14T07:55:16;100769.19;;;8.39;100.00
10460;BME280;54412;51.206;6.888;2023-12-14T07:57:43;100772.56;;;8.42;100.00
10460;BME280;54412;51.206;6.888;2023-12-14T08:00:09;100774.97;;;8.49;99.74
10460;BME280;54412;51.206;6.888;2023-12-14T08:02:35;100786.31;;;8.49;99.93
10460;BME280;54412;51.206;6.888;2023-12-14T08:05:01;100789.59;;;8.77;98.59
10460;BME280;54412;51.206;6.888;2023-12-14T08:07:27;100790.09;;;8.65;98.66
10460;BME280;54412;51.206;6.888;2023-12-14T08:09:57;100792.34;;;8.53;99.15
10460;BME280;54412;51.206;6.888;2023-12-14T08:12:23;100798.72;;;8.45;99.68
10460;BME280;54412;51.206;6.888;2023-12-14T08:14:50;100794.59;;;8.40;99.70
10460;BME280;54412;51.206;6.888;2023-12-14T08:17:15;100809.47;;;8.84;97.80
10460;BME280;54412;51.206;6.888;2023-12-14T08:19:42;100810.28;;;8.41;99.77
10460;BME280;54412;51.206;6.888;2023-12-14T08:22:08;100826.22;;;8.37;100.00
10460;BME280;54412;51.206;6.888;2023-12-14T08:24:38;100830.72;;;8.33;100.00
10460;BME280;54412;51.206;6.888;2023-12-14T08:27:04;100836.91;;;8.56;99.19
10460;BME280;54412;51.206;6.888;2023-12-14T08:29:30;100832.56;;;8.31;100.00
10460;BME280;54412;51.206;6.888;2023-12-14T08:31:55;100847.38;;;8.34;100.00
10460;BME280;54412;51.206;6.888;2023-12-14T08:34:27;100850.56;;;8.42;99.67
10460;BME280;54412;51.206;6.888;2023-12-14T08:36:53;100857.94;;;8.56;98.50
10460;BME280;54412;51.206;6.888;2023-12-14T08:39:18;100869.25;;;8.58;97.92
10460;BME280;54412;51.206;6.888;2023-12-14T08:41:46;100873.34;;;8.17;100.00
10460;BME280;54412;51.206;6.888;2023-12-14T08:44:12;100882.63;;;8.52;99.46
10460;BME280;54412;51.206;6.888;2023-12-14T08:46:44;100879.34;;;8.22;99.94
10460;BME280;54412;51.206;6.888;2023-12-14T08:49:12;100886.25;;;8.48;100.00
10460;BME280;54412;51.206;6.888;2023-12-14T08:51:39;100889.63;;;8.51;99.57
10460;BME280;54412;51.206;6.888;2023-12-14T08:54:06;100900.06;;;8.31;99.56
10460;BME280;54412;51.206;6.888;2023-12-14T08:56:32;100902.63;;;8.32;100.00
10460;BME280;54412;51.206;6.888;2023-12-14T08:58:58;100898.75;;;8.18;100.00
10460;BME280;54412;51.206;6.888;2023-12-14T09:01:25;100907.16;;;8.27;100.00
10460;BME280;54412;51.206;6.888;2023-12-14T09:03:51;100906.72;;;8.15;100.00
10460;BME280;54412;51.206;6.888;2023-12-14T09:06:17;100914.50;;;8.42;100.00
10460;BME280;54412;51.206;6.888;2023-12-14T09:08:44;100926.50;;;8.50;99.34
10460;BME280;54412;51.206;6.888;2023-12-14T09:11:10;100935.00;;;8.33;100.00
10460;BME280;54412;51.206;6.888;2023-12-14T09:13:36;100936.00;;;8.54;99.66
10460;BME280;54412;51.206;6.888;2023-12-14T09:16:02;100937.59;;;8.34;98.58
10460;BME280;54412;51.206;6.888;2023-12-14T09:18:27;100932.16;;;8.39;100.00
10460;BME280;54412;51.206;6.888;2023-12-14T09:20:53;100944.34;;;8.41;99.85
10460;BME280;54412;51.206;6.888;2023-12-14T09:23:19;100946.31;;;8.60;97.75
10460;BME280;54412;51.206;6.888;2023-12-14T09:25:45;100948.59;;;8.44;98.25
10460;BME280;54412;51.206;6.888;2023-12-14T09:28:11;100943.13;;;8.50;97.77
10460;BME280;54412;51.206;6.888;2023-12-14T09:30:37;100945.56;;;8.56;97.84
10460;BME280;54412;51.206;6.888;2023-12-14T09:33:02;100956.16;;;8.53;96.85
10460;BME280;54412;51.206;6.888;2023-12-14T09:35:28;100962.69;;;8.43;96.70
10460;BME280;54412;51.206;6.888;2023-12-14T09:37:54;100954.78;;;8.43;96.57
10460;BME280;54412;51.206;6.888;2023-12-14T09:40:22;100960.69;;;8.25;97.16
10460;BME280;54412;51.206;6.888;2023-12-14T09:42:48;100969.44;;;8.25;98.35
10460;BME280;54412;51.206;6.888;2023-12-14T09:45:17;100971.75;;;8.34;97.33
10460;BME280;54412;51.206;6.888;2023-12-14T09:47:46;100974.22;;;8.39;96.85
10460;BME280;54412;51.206;6.888;2023-12-14T09:50:12;100975.75;;;8.20;97.92
10460;BME280;54412;51.206;6.888;2023-12-14T09:52:40;100978.91;;;8.31;98.33
10460;BME280;54412;51.206;6.888;2023-12-14T09:55:11;100980.88;;;8.23;98.48
10460;BME280;54412;51.206;6.888;2023-12-14T09:57:37;100985.44;;;8.18;98.85
10460;BME280;54412;51.206;6.888;2023-12-14T10:00:03;100990.94;;;8.36;98.43
10460;BME280;54412;51.206;6.888;2023-12-14T10:02:32;100993.66;;;8.58;97.61
10460;BME280;54412;51.206;6.888;2023-12-14T10:04:57;100994.63;;;8.56;95.49
10460;BME280;54412;51.206;6.888;2023-12-14T10:07:23;100999.53;;;8.41;96.82
10460;BME280;54412;51.206;6.888;2023-12-14T10:09:49;100996.47;;;8.29;97.50
10460;BME280;54412;51.206;6.888;2023-12-14T10:12:16;101001.34;;;8.39;97.07
10460;BME280;54412;51.206;6.888;2023-12-14T10:14:42;101012.72;;;8.65;94.82
10460;BME280;54412;51.206;6.888;2023-12-14T10:17:20;101021.16;;;8.23;96.83
10460;BME280;54412;51.206;6.888;2023-12-14T10:19:48;101030.63;;;8.29;97.07
10460;BME280;54412;51.206;6.888;2023-12-14T10:22:15;101033.59;;;8.44;96.65
10460;BME280;54412;51.206;6.888;2023-12-14T10:24:46;101038.53;;;8.54;96.53
10460;BME280;54412;51.206;6.888;2023-12-14T10:27:14;101046.03;;;8.39;96.00
10460;BME280;54412;51.206;6.888;2023-12-14T10:29:41;101051.16;;;8.69;94.92
10460;BME280;54412;51.206;6.888;2023-12-14T10:32:07;101061.13;;;8.34;96.05
10460;BME280;54412;51.206;6.888;2023-12-14T10:34:35;101056.31;;;8.45;96.29
10460;BME280;54412;51.206;6.888;2023-12-14T10:37:04;101057.88;;;8.51;95.70
10460;BME280;54412;51.206;6.888;2023-12-14T10:39:33;101070.81;;;8.57;95.33
10460;BME280;54412;51.206;6.888;2023-12-14T10:42:05;101076.34;;;8.50;95.90
10460;BME280;54412;51.206;6.888;2023-12-14T10:44:37;101087.41;;;8.59;93.25
10460;BME280;54412;51.206;6.888;2023-12-14T10:47:04;101089.91;;;8.37;93.85
10460;BME280;54412;51.206;6.888;2023-12-14T10:49:33;101092.19;;;8.20;95.65
10460;BME280;54412;51.206;6.888;2023-12-14T10:52:02;101089.34;;;8.54;94.04
10460;BME280;54412;51.206;6.888;2023-12-14T10:54:31;101083.28;;;8.26;94.93
10460;BME280;54412;51.206;6.888;2023-12-14T10:56:57;101086.19;;;8.17;95.88
10460;BME280;54412;51.206;6.888;2023-12-14T10:59:26;101087.13;;;8.42;94.92
10460;BME280;54412;51.206;6.888;2023-12-14T11:01:55;101090.97;;;8.32;93.60
10460;BME280;54412;51.206;6.888;2023-12-14T11:04:27;101092.81;;;8.55;92.57
10460;BME280;54412;51.206;6.888;2023-12-14T11:06:54;101099.31;;;8.17;93.92
10460;BME280;54412;51.206;6.888;2023-12-14T11:09:23;101102.75;;;8.19;94.88
10460;BME280;54412;51.206;6.888;2023-12-14T11:14:20;101106.13;;;8.22;96.23
10460;BME280;54412;51.206;6.888;2023-12-14T11:16:48;101105.78;;;8.34;94.55
10460;BME280;54412;51.206;6.888;2023-12-14T11:24:35;101120.81;;;8.31;94.91
10460;BME280;54412;51.206;6.888;2023-12-14T11:27:07;101120.81;;;8.31;93.91
10460;BME280;54412;51.206;6.888;2023-12-14T11:29:36;101126.41;;;8.47;93.85
10460;BME280;54412;51.206;6.888;2023-12-14T11:32:01;101134.59;;;8.37;93.30
10460;BME280;54412;51.206;6.888;2023-12-14T11:34:27;101142.47;;;8.37;94.18
10460;BME280;54412;51.206;6.888;2023-12-14T11:36:55;101143.59;;;8.30;94.32
10460;BME280;54412;51.206;6.888;2023-12-14T11:39:20;101144.53;;;8.28;94.19
10460;BME280;54412;51.206;6.888;2023-12-14T11:42:04;101137.69;;;8.22;94.33
10460;BME280;54412;51.206;6.888;2023-12-14T11:44:32;101148.28;;;8.19;94.26
10460;BME280;54412;51.206;6.888;2023-12-14T11:46:58;101141.22;;;8.21;94.77
10460;BME280;54412;51.206;6.888;2023-12-14T11:49:25;101142.56;;;8.07;95.15
10460;BME280;54412;51.206;6.888;2023-12-14T11:51:57;101149.22;;;8.18;96.48
10460;BME280;54412;51.206;6.888;2023-12-14T11:54:23;101149.91;;;8.23;96.10
10460;BME280;54412;51.206;6.888;2023-12-14T11:56:50;101157.81;;;8.23;95.00
10460;BME280;54412;51.206;6.888;2023-12-14T11:59:17;101156.19;;;8.19;96.02
10460;BME280;54412;51.206;6.888;2023-12-14T12:01:58;101161.31;;;8.22;95.90
10460;BME280;54412;51.206;6.888;2023-12-14T12:04:25;101156.22;;;8.45;94.84
10460;BME280;54412;51.206;6.888;2023-12-14T12:07:03;101163.97;;;8.50;93.71
10460;BME280;54412;51.206;6.888;2023-12-14T12:09:41;101165.75;;;8.20;95.95
10460;BME280;54412;51.206;6.888;2023-12-14T12:12:11;101157.88;;;8.20;96.75
10460;BME280;54412;51.206;6.888;2023-12-14T12:14:39;101163.13;;;8.22;96.06
10460;BME280;54412;51.206;6.888;2023-12-14T12:17:06;101161.63;;;8.13;96.50
10460;BME280;54412;51.206;6.888;2023-12-14T12:19:37;101156.19;;;8.19;97.15
10460;BME280;54412;51.206;6.888;2023-12-14T12:22:03;101155.69;;;8.36;96.51
10460;BME280;54412;51.206;6.888;2023-12-14T12:24:29;101166.94;;;8.39;96.05
10460;BME280;54412;51.206;6.888;2023-12-14T12:26:55;101156.94;;;8.51;94.99
10460;BME280;54412;51.206;6.888;2023-12-14T12:29:22;101157.38;;;8.37;95.15
10460;BME280;54412;51.206;6.888;2023-12-14T12:31:48;101155.44;;;8.43;95.02
10460;BME280;54412;51.206;6.888;2023-12-14T12:34:14;101152.00;;;8.41;94.58
10460;BME280;54412;51.206;6.888;2023-12-14T12:36:41;101153.09;;;8.34;95.15
10460;BME280;54412;51.206;6.888;2023-12-14T12:39:07;101164.97;;;8.72;93.97
10460;BME280;54412;51.206;6.888;2023-12-14T12:41:34;101167.00;;;8.38;95.25
10460;BME280;54412;51.206;6.888;2023-12-14T12:44:00;101165.97;;;8.42;94.74
10460;BME280;54412;51.206;6.888;2023-12-14T12:46:32;101183.06;;;8.55;94.57
10460;BME280;54412;51.206;6.888;2023-12-14T12:48:59;101177.25;;;8.45;94.61
10460;BME280;54412;51.206;6.888;2023-12-14T12:51:24;101169.63;;;8.38;94.32
10460;BME280;54412;51.206;6.888;2023-12-14T12:53:52;101177.53;;;8.36;93.34
10460;BME280;54412;51.206;6.888;2023-12-14T12:56:18;101189.47;;;8.99;90.63